sensor_id;sensor_type;location;lat;lon;timestamp;temperature;humidity
44229;DHT22;29904;51.058;5.378;2023-10-13T00:01:57;18.40;99.90
44229;DHT22;29904;51.058;5.378;2023-10-13T00:04:28;18.40;99.90
44229;DHT22;29904;51.058;5.378;2023-10-13T00:06:55;18.40;99.90
44229;DHT22;29904;51.058;5.378;2023-10-13T00:09:24;18.50;99.90
44229;DHT22;29904;51.058;5.378;2023-10-13T00:12:06;18.50;99.90
44229;DHT22;29904;51.058;5.378;2023-10-13T00:14:39;18.50;99.90
44229;DHT22;29904;51.058;5.378;2023-10-13T00:17:07;18.50;99.90
44229;DHT22;29904;51.058;5.378;2023-10-13T00:19:38;18.50;99.90
44229;DHT22;29904;51.058;5.378;2023-10-13T00:22:10;18.50;99.90
44229;DHT22;29904;51.058;5.378;2023-10-13T00:24:40;18.50;99.90
44229;DHT22;29904;51.058;5.378;2023-10-13T00:27:15;18.50;99.90
44229;DHT22;29904;51.058;5.378;2023-10-13T00:29:59;18.50;99.90
44229;DHT22;29904;51.058;5.378;2023-10-13T00:32:57;18.50;99.90
44229;DHT22;29904;51.058;5.378;2023-10-13T00:35:24;18.40;99.90
44229;DHT22;29904;51.058;5.378;2023-10-13T00:37:54;18.40;99.90
44229;DHT22;29904;51.058;5.378;2023-10-13T00:40:21;18.40;99.90
44229;DHT22;29904;51.058;5.378;2023-10-13T00:43:12;18.30;99.90
44229;DHT22;29904;51.058;5.378;2023-10-13T00:45:55;18.30;99.90
44229;DHT22;29904;51.058;5.378;2023-10-13T00:48:35;18.30;99.90
44229;DHT22;29904;51.058;5.378;2023-10-13T00:51:09;18.20;99.90
44229;DHT22;29904;51.058;5.378;2023-10-13T00:53:54;18.30;99.90
44229;DHT22;29904;51.058;5.378;2023-10-13T00:56:22;18.30;99.90
44229;DHT22;29904;51.058;5.378;2023-10-13T00:58:53;18.30;99.90
44229;DHT22;29904;51.058;5.378;2023-10-13T01:01:20;18.30;99.90
44229;DHT22;29904;51.058;5.378;2023-10-13T01:03:55;18.30;99.90
44229;DHT22;29904;51.058;5.378;2023-10-13T01:06:23;18.30;99.90
44229;DHT22;29904;51.058;5.378;2023-10-13T01:09:04;18.30;99.90
44229;DHT22;29904;51.058;5.378;2023-10-13T01:11:46;18.30;99.90
44229;DHT22;29904;51.058;5.378;2023-10-13T01:14:16;18.30;99.90
44229;DHT22;29904;51.058;5.378;2023-10-13T01:16:43;18.30;99.90
44229;DHT22;29904;51.058;5.378;2023-10-13T01:19:14;18.30;99.90
44229;DHT22;29904;51.058;5.378;2023-10-13T01:21:42;18.30;99.90
44229;DHT22;29904;51.058;5.378;2023-10-13T01:24:10;18.30;99.90
44229;DHT22;29904;51.058;5.378;2023-10-13T01:26:38;18.30;99.90
44229;DHT22;29904;51.058;5.378;2023-10-13T01:29:07;18.30;99.90
44229;DHT22;29904;51.058;5.378;2023-10-13T01:31:41;18.30;99.90
44229;DHT22;29904;51.058;5.378;2023-10-13T01:34:17;18.30;99.90
44229;DHT22;29904;51.058;5.378;2023-10-13T01:36:54;18.30;99.90
44229;DHT22;29904;51.058;5.378;2023-10-13T01:39:23;18.40;99.90
44229;DHT22;29904;51.058;5.378;2023-10-13T01:41:54;18.30;99.90
44229;DHT22;29904;51.058;5.378;2023-10-13T01:44:21;18.40;99.90
44229;DHT22;29904;51.058;5.378;2023-10-13T01:46:47;18.30;99.90
44229;DHT22;29904;51.058;5.378;2023-10-13T01:49:15;18.40;99.90
44229;DHT22;29904;51.058;5.378;2023-10-13T01:51:41;18.40;99.90
44229;DHT22;29904;51.058;5.378;2023-10-13T01:54:08;18.40;99.90
44229;DHT22;29904;51.058;5.378;2023-10-13T01:56:38;18.40;99.90
44229;DHT22;29904;51.058;5.378;2023-10-13T01:59:08;18.40;99.90
44229;DHT22;29904;51.058;5.378;2023-10-13T02:01:35;18.40;99.90
44229;DHT22;29904;51.058;5.378;2023-10-13T02:04:03;18.50;99.90
44229;DHT22;29904;51.058;5.378;2023-10-13T02:06:33;18.40;99.90
44229;DHT22;29904;51.058;5.378;2023-10-13T02:09:00;18.40;99.90
44229;DHT22;29904;51.058;5.378;2023-10-13T02:11:42;18.40;99.90
44229;DHT22;29904;51.058;5.378;2023-10-13T02:14:11;18.40;99.90
44229;DHT22;29904;51.058;5.378;2023-10-13T02:16:38;18.40;99.90
44229;DHT22;29904;51.058;5.378;2023-10-13T02:19:04;18.40;99.90
44229;DHT22;29904;51.058;5.378;2023-10-13T02:21:33;18.50;99.90
44229;DHT22;29904;51.058;5.378;2023-10-13T02:24:08;18.50;99.90
44229;DHT22;29904;51.058;5.378;2023-10-13T02:26:47;18.50;99.90
44229;DHT22;29904;51.058;5.378;2023-10-13T02:29:12;18.50;99.90
44229;DHT22;29904;51.058;5.378;2023-10-13T02:31:42;18.50;99.90
44229;DHT22;29904;51.058;5.378;2023-10-13T02:34:08;18.50;99.90
44229;DHT22;29904;51.058;5.378;2023-10-13T02:36:38;18.50;99.90
44229;DHT22;29904;51.058;5.378;2023-10-13T02:39:15;18.60;99.90
44229;DHT22;29904;51.058;5.378;2023-10-13T02:41:50;18.60;99.90
44229;DHT22;29904;51.058;5.378;2023-10-13T02:44:16;18.60;99.90
44229;DHT22;29904;51.058;5.378;2023-10-13T02:47:09;18.50;99.90
44229;DHT22;29904;51.058;5.378;2023-10-13T02:49:40;18.50;99.90
44229;DHT22;29904;51.058;5.378;2023-10-13T02:52:12;18.50;99.90
44229;DHT22;29904;51.058;5.378;2023-10-13T02:54:42;18.50;99.90
44229;DHT22;29904;51.058;5.378;2023-10-13T02:57:19;18.50;99.90
44229;DHT22;29904;51.058;5.378;2023-10-13T02:59:45;18.50;99.90
44229;DHT22;29904;51.058;5.378;2023-10-13T03:02:24;18.50;99.90
44229;DHT22;29904;51.058;5.378;2023-10-13T03:04:56;18.50;99.90
44229;DHT22;29904;51.058;5.378;2023-10-13T03:07:27;18.50;99.90
44229;DHT22;29904;51.058;5.378;2023-10-13T03:09:55;18.40;99.90
44229;DHT22;29904;51.058;5.378;2023-10-13T03:12:25;18.40;99.90
44229;DHT22;29904;51.058;5.378;2023-10-13T03:14:51;18.40;99.90
44229;DHT22;29904;51.058;5.378;2023-10-13T03:17:22;18.40;99.90
44229;DHT22;29904;51.058;5.378;2023-10-13T03:19:59;18.50;99.90
44229;DHT22;29904;51.058;5.378;2023-10-13T03:22:25;18.50;99.90
44229;DHT22;29904;51.058;5.378;2023-10-13T03:24:57;18.50;99.90
44229;DHT22;29904;51.058;5.378;2023-10-13T03:27:30;18.50;99.90
44229;DHT22;29904;51.058;5.378;2023-10-13T03:30:13;18.50;99.90
44229;DHT22;29904;51.058;5.378;2023-10-13T03:32:43;18.50;99.90
44229;DHT22;29904;51.058;5.378;2023-10-13T03:35:12;18.50;99.90
44229;DHT22;29904;51.058;5.378;2023-10-13T03:37:52;18.50;99.90
44229;DHT22;29904;51.058;5.378;2023-10-13T03:40:18;18.50;99.90
44229;DHT22;29904;51.058;5.378;2023-10-13T03:42:51;18.40;99.90
44229;DHT22;29904;51.058;5.378;2023-10-13T03:45:26;18.40;99.90
44229;DHT22;29904;51.058;5.378;2023-10-13T03:47:53;18.40;99.90
44229;DHT22;29904;51.058;5.378;2023-10-13T03:50:19;18.40;99.90
44229;DHT22;29904;51.058;5.378;2023-10-13T03:53:00;18.40;99.90
44229;DHT22;29904;51.058;5.378;2023-10-13T03:55:26;18.40;99.90
44229;DHT22;29904;51.058;5.378;2023-10-13T03:57:55;18.40;99.90
44229;DHT22;29904;51.058;5.378;2023-10-13T04:00:22;18.40;99.90
44229;DHT22;29904;51.058;5.378;2023-10-13T04:02:52;18.40;99.90
44229;DHT22;29904;51.058;5.378;2023-10-13T04:05:35;18.40;99.90
44229;DHT22;29904;51.058;5.378;2023-10-13T04:08:04;18.30;99.90
44229;DHT22;29904;51.058;5.378;2023-10-13T04:10:49;18.40;99.90
44229;DHT22;29904;51.058;5.378;2023-10-13T04:13:18;18.30;99.90
44229;DHT22;29904;51.058;5.378;2023-10-13T04:16:04;18.40;99.90
44229;DHT22;29904;51.058;5.378;2023-10-13T04:18:51;18.40;99.90
44229;DHT22;29904;51.058;5.378;2023-10-13T04:21:21;18.40;99.90
44229;DHT22;29904;51.058;5.378;2023-10-13T04:24:08;18.40;99.90
44229;DHT22;29904;51.058;5.378;2023-10-13T04:26:56;18.40;99.90
44229;DHT22;29904;51.058;5.378;2023-10-13T04:29:42;18.40;99.90
44229;DHT22;29904;51.058;5.378;2023-10-13T04:32:31;18.40;99.90
44229;DHT22;29904;51.058;5.378;2023-10-13T04:35:11;18.40;99.90
44229;DHT22;29904;51.058;5.378;2023-10-13T04:37:37;18.40;99.90
44229;DHT22;29904;51.058;5.378;2023-10-13T04:40:22;18.40;99.90
44229;DHT22;29904;51.058;5.378;2023-10-13T04:42:51;18.40;99.90
44229;DHT22;29904;51.058;5.378;2023-10-13T04:45:23;18.40;99.90
44229;DHT22;29904;51.058;5.378;2023-10-13T04:47:57;18.40;99.90
44229;DHT22;29904;51.058;5.378;2023-10-13T04:50:45;18.30;99.90
44229;DHT22;29904;51.058;5.378;2023-10-13T04:55:57;18.40;99.90
44229;DHT22;29904;51.058;5.378;2023-10-13T04:58:32;18.40;99.90
44229;DHT22;29904;51.058;5.378;2023-10-13T05:01:04;18.40;99.90
44229;DHT22;29904;51.058;5.378;2023-10-13T05:03:51;18.40;99.90
44229;DHT22;29904;51.058;5.378;2023-10-13T05:06:35;18.40;99.90
44229;DHT22;29904;51.058;5.378;2023-10-13T05:09:27;18.40;99.90
44229;DHT22;29904;51.058;5.378;2023-10-13T05:12:11;18.40;99.90
44229;DHT22;29904;51.058;5.378;2023-10-13T05:14:55;18.40;99.90
44229;DHT22;29904;51.058;5.378;2023-10-13T05:17:39;18.40;99.90
44229;DHT22;29904;51.058;5.378;2023-10-13T05:20:24;18.40;99.90
44229;DHT22;29904;51.058;5.378;2023-10-13T05:23:10;18.40;99.90
44229;DHT22;29904;51.058;5.378;2023-10-13T05:25:54;18.40;99.90
44229;DHT22;29904;51.058;5.378;2023-10-13T05:28:58;18.40;99.90
44229;DHT22;29904;51.058;5.378;2023-10-13T05:31:44;18.40;99.90
44229;DHT22;29904;51.058;5.378;2023-10-13T05:34:28;18.40;99.90
44229;DHT22;29904;51.058;5.378;2023-10-13T05:37:12;18.40;99.90
44229;DHT22;29904;51.058;5.378;2023-10-13T05:39:57;18.40;99.90
44229;DHT22;29904;51.058;5.378;2023-10-13T05:42:41;18.40;99.90
44229;DHT22;29904;51.058;5.378;2023-10-13T05:45:25;18.40;99.90
44229;DHT22;29904;51.058;5.378;2023-10-13T05:48:25;18.40;99.90
44229;DHT22;29904;51.058;5.378;2023-10-13T05:51:08;18.40;99.90
44229;DHT22;29904;51.058;5.378;2023-10-13T05:53:52;18.40;99.90
44229;DHT22;29904;51.058;5.378;2023-10-13T05:56:36;18.40;99.90
44229;DHT22;29904;51.058;5.378;2023-10-13T05:59:20;18.40;99.90
44229;DHT22;29904;51.058;5.378;2023-10-13T06:02:05;18.40;99.90
44229;DHT22;29904;51.058;5.378;2023-10-13T06:04:51;18.40;99.90
44229;DHT22;29904;51.058;5.378;2023-10-13T06:07:35;18.40;99.90
44229;DHT22;29904;51.058;5.378;2023-10-13T06:10:19;18.40;99.90
44229;DHT22;29904;51.058;5.378;2023-10-13T06:13:03;18.40;99.90
44229;DHT22;29904;51.058;5.378;2023-10-13T06:15:49;18.40;99.90
44229;DHT22;29904;51.058;5.378;2023-10-13T06:18:35;18.40;99.90
44229;DHT22;29904;51.058;5.378;2023-10-13T06:21:22;18.40;99.90
44229;DHT22;29904;51.058;5.378;2023-10-13T06:24:07;18.50;99.90
44229;DHT22;29904;51.058;5.378;2023-10-13T06:26:53;18.40;99.90
44229;DHT22;29904;51.058;5.378;2023-10-13T06:29:37;18.40;99.90
44229;DHT22;29904;51.058;5.378;2023-10-13T06:32:03;18.40;99.90
44229;DHT22;29904;51.058;5.378;2023-10-13T06:34:36;18.40;99.90
44229;DHT22;29904;51.058;5.378;2023-10-13T06:37:14;18.40;99.90
44229;DHT22;29904;51.058;5.378;2023-10-13T06:40:03;18.40;99.90
44229;DHT22;29904;51.058;5.378;2023-10-13T06:42:48;18.40;99.90
44229;DHT22;29904;51.058;5.378;2023-10-13T06:45:14;18.40;99.90
44229;DHT22;29904;51.058;5.378;2023-10-13T06:47:42;18.40;99.90
44229;DHT22;29904;51.058;5.378;2023-10-13T06:50:09;18.50;99.90
44229;DHT22;29904;51.058;5.378;2023-10-13T06:52:45;18.50;99.90
44229;DHT22;29904;51.058;5.378;2023-10-13T06:55:14;18.60;99.90
44229;DHT22;29904;51.058;5.378;2023-10-13T06:57:43;18.60;99.90
44229;DHT22;29904;51.058;5.378;2023-10-13T07:00:10;18.60;99.90
44229;DHT22;29904;51.058;5.378;2023-10-13T07:02:46;18.70;99.90
44229;DHT22;29904;51.058;5.378;2023-10-13T07:05:12;18.80;99.90
44229;DHT22;29904;51.058;5.378;2023-10-13T07:07:39;18.80;99.90
44229;DHT22;29904;51.058;5.378;2023-10-13T07:10:12;18.90;99.90
44229;DHT22;29904;51.058;5.378;2023-10-13T07:12:39;18.90;99.90
44229;DHT22;29904;51.058;5.378;2023-10-13T07:15:11;18.90;99.90
44229;DHT22;29904;51.058;5.378;2023-10-13T07:17:48;19.00;99.90
44229;DHT22;29904;51.058;5.378;2023-10-13T07:20:21;19.00;99.90
44229;DHT22;29904;51.058;5.378;2023-10-13T07:22:58;19.00;99.90
44229;DHT22;29904;51.058;5.378;2023-10-13T07:25:32;19.00;99.90
44229;DHT22;29904;51.058;5.378;2023-10-13T07:28:03;19.00;99.90
44229;DHT22;29904;51.058;5.378;2023-10-13T07:30:31;19.00;99.90
44229;DHT22;29904;51.058;5.378;2023-10-13T07:33:05;19.00;99.90
44229;DHT22;29904;51.058;5.378;2023-10-13T07:35:31;19.10;99.90
44229;DHT22;29904;51.058;5.378;2023-10-13T07:38:01;19.00;99.90
44229;DHT22;29904;51.058;5.378;2023-10-13T07:40:27;19.10;99.90
44229;DHT22;29904;51.058;5.378;2023-10-13T07:43:05;19.10;99.90
44229;DHT22;29904;51.058;5.378;2023-10-13T07:45:37;19.10;99.90
44229;DHT22;29904;51.058;5.378;2023-10-13T07:48:07;19.10;99.90
44229;DHT22;29904;51.058;5.378;2023-10-13T07:50:39;19.10;99.90
44229;DHT22;29904;51.058;5.378;2023-10-13T07:53:04;19.20;99.90
44229;DHT22;29904;51.058;5.378;2023-10-13T07:55:46;19.20;99.90
44229;DHT22;29904;51.058;5.378;2023-10-13T07:58:24;19.30;99.90
44229;DHT22;29904;51.058;5.378;2023-10-13T08:00:51;19.50;99.90
44229;DHT22;29904;51.058;5.378;2023-10-13T08:03:35;19.70;99.90
44229;DHT22;29904;51.058;5.378;2023-10-13T08:06:15;19.80;99.90
44229;DHT22;29904;51.058;5.378;2023-10-13T08:08:40;19.90;99.90
44229;DHT22;29904;51.058;5.378;2023-10-13T08:11:13;20.00;99.90
44229;DHT22;29904;51.058;5.378;2023-10-13T08:13:49;20.10;99.90
44229;DHT22;29904;51.058;5.378;2023-10-13T08:16:33;20.10;99.90
44229;DHT22;29904;51.058;5.378;2023-10-13T08:19:23;20.10;99.90
44229;DHT22;29904;51.058;5.378;2023-10-13T08:22:11;20.10;99.90
44229;DHT22;29904;51.058;5.378;2023-10-13T08:24:46;20.10;99.90
44229;DHT22;29904;51.058;5.378;2023-10-13T08:27:14;20.20;99.90
44229;DHT22;29904;51.058;5.378;2023-10-13T08:29:40;20.20;99.90
44229;DHT22;29904;51.058;5.378;2023-10-13T08:32:22;20.30;99.90
44229;DHT22;29904;51.058;5.378;2023-10-13T08:34:58;20.30;99.90
44229;DHT22;29904;51.058;5.378;2023-10-13T08:37:26;20.30;99.90
44229;DHT22;29904;51.058;5.378;2023-10-13T08:39:54;20.40;99.90
44229;DHT22;29904;51.058;5.378;2023-10-13T08:42:33;20.40;99.90
44229;DHT22;29904;51.058;5.378;2023-10-13T08:45:19;20.50;99.90
44229;DHT22;29904;51.058;5.378;2023-10-13T08:48:07;20.60;99.90
44229;DHT22;29904;51.058;5.378;2023-10-13T08:56:05;20.80;99.90
44229;DHT22;29904;51.058;5.378;2023-10-13T08:58:45;20.80;99.90
44229;DHT22;29904;51.058;5.378;2023-10-13T09:01:26;20.90;99.90
44229;DHT22;29904;51.058;5.378;2023-10-13T09:04:04;21.00;99.90
44229;DHT22;29904;51.058;5.378;2023-10-13T09:06:55;21.00;99.90
44229;DHT22;29904;51.058;5.378;2023-10-13T09:09:46;21.20;99.90
44229;DHT22;29904;51.058;5.378;2023-10-13T09:12:29;21.30;99.90
44229;DHT22;29904;51.058;5.378;2023-10-13T09:14:58;21.40;99.90
44229;DHT22;29904;51.058;5.378;2023-10-13T09:17:29;21.40;99.90
44229;DHT22;29904;51.058;5.378;2023-10-13T09:20:03;21.50;99.90
44229;DHT22;29904;51.058;5.378;2023-10-13T09:22:48;21.60;99.90
44229;DHT22;29904;51.058;5.378;2023-10-13T09:25:37;21.70;99.90
44229;DHT22;29904;51.058;5.378;2023-10-13T09:28:15;21.90;99.90
44229;DHT22;29904;51.058;5.378;2023-10-13T09:30:53;21.90;99.90
44229;DHT22;29904;51.058;5.378;2023-10-13T09:33:23;22.00;99.90
44229;DHT22;29904;51.058;5.378;2023-10-13T09:36:06;22.10;99.90
44229;DHT22;29904;51.058;5.378;2023-10-13T09:38:36;22.20;99.90
44229;DHT22;29904;51.058;5.378;2023-10-13T09:41:05;22.20;99.90
44229;DHT22;29904;51.058;5.378;2023-10-13T09:43:44;22.20;99.90
44229;DHT22;29904;51.058;5.378;2023-10-13T09:46:14;22.30;99.90
44229;DHT22;29904;51.058;5.378;2023-10-13T09:48:47;22.40;99.90
44229;DHT22;29904;51.058;5.378;2023-10-13T09:51:16;22.50;99.90
44229;DHT22;29904;51.058;5.378;2023-10-13T09:54:24;22.50;99.90
44229;DHT22;29904;51.058;5.378;2023-10-13T09:56:56;22.40;99.90
44229;DHT22;29904;51.058;5.378;2023-10-13T09:59:36;22.40;99.90
44229;DHT22;29904;51.058;5.378;2023-10-13T10:02:08;22.40;99.90
44229;DHT22;29904;51.058;5.378;2023-10-13T10:04:35;22.50;99.90
44229;DHT22;29904;51.058;5.378;2023-10-13T10:07:24;22.50;99.90
44229;DHT22;29904;51.058;5.378;2023-10-13T10:09:56;22.60;99.90
44229;DHT22;29904;51.058;5.378;2023-10-13T10:12:47;22.70;99.90
44229;DHT22;29904;51.058;5.378;2023-10-13T10:15:28;22.80;99.90
44229;DHT22;29904;51.058;5.378;2023-10-13T10:18:02;22.80;99.90
44229;DHT22;29904;51.058;5.378;2023-10-13T10:20:37;22.80;99.90
44229;DHT22;29904;51.058;5.378;2023-10-13T10:23:12;22.80;99.90
44229;DHT22;29904;51.058;5.378;2023-10-13T10:25:48;22.80;99.90
44229;DHT22;29904;51.058;5.378;2023-10-13T10:28:19;22.80;99.90
44229;DHT22;29904;51.058;5.378;2023-10-13T10:30:45;22.80;99.90
44229;DHT22;29904;51.058;5.378;2023-10-13T10:33:12;22.80;99.90
44229;DHT22;29904;51.058;5.378;2023-10-13T10:35:41;22.80;99.90
44229;DHT22;29904;51.058;5.378;2023-10-13T10:38:12;22.90;99.90
44229;DHT22;29904;51.058;5.378;2023-10-13T10:41:10;23.00;99.90
44229;DHT22;29904;51.058;5.378;2023-10-13T10:43:39;23.10;99.90
44229;DHT22;29904;51.058;5.378;2023-10-13T10:46:28;23.20;99.90
44229;DHT22;29904;51.058;5.378;2023-10-13T10:48:57;23.30;99.90
44229;DHT22;29904;51.058;5.378;2023-10-13T10:51:27;23.40;99.90
44229;DHT22;29904;51.058;5.378;2023-10-13T10:54:00;23.30;99.90
44229;DHT22;29904;51.058;5.378;2023-10-13T10:56:38;23.30;99.90
44229;DHT22;29904;51.058;5.378;2023-10-13T10:59:06;23.30;99.90
44229;DHT22;29904;51.058;5.378;2023-10-13T11:01:46;23.30;99.90
44229;DHT22;29904;51.058;5.378;2023-10-13T11:04:13;23.30;99.90
44229;DHT22;29904;51.058;5.378;2023-10-13T11:06:53;23.40;99.90
44229;DHT22;29904;51.058;5.378;2023-10-13T11:09:27;23.50;99.90
44229;DHT22;29904;51.058;5.378;2023-10-13T11:12:31;23.60;99.90
44229;DHT22;29904;51.058;5.378;2023-10-13T11:15:02;23.60;99.90
44229;DHT22;29904;51.058;5.378;2023-10-13T11:17:29;23.70;99.90
44229;DHT22;29904;51.058;5.378;2023-10-13T11:20:16;23.80;99.90
44229;DHT22;29904;51.058;5.378;2023-10-13T11:22:48;23.80;99.90
44229;DHT22;29904;51.058;5.378;2023-10-13T11:25:25;23.80;99.90
44229;DHT22;29904;51.058;5.378;2023-10-13T11:28:20;23.90;99.90
44229;DHT22;29904;51.058;5.378;2023-10-13T11:30:46;23.90;99.90
44229;DHT22;29904;51.058;5.378;2023-10-13T11:33:18;23.90;99.90
44229;DHT22;29904;51.058;5.378;2023-10-13T11:35:46;23.90;99.90
44229;DHT22;29904;51.058;5.378;2023-10-13T11:38:22;23.90;99.90
44229;DHT22;29904;51.058;5.378;2023-10-13T11:41:00;23.80;99.90
44229;DHT22;29904;51.058;5.378;2023-10-13T11:43:47;23.70;99.90
44229;DHT22;29904;51.058;5.378;2023-10-13T11:46:17;23.80;99.90
44229;DHT22;29904;51.058;5.378;2023-10-13T11:49:07;24.00;99.90
44229;DHT22;29904;51.058;5.378;2023-10-13T11:51:42;24.10;99.90
44229;DHT22;29904;51.058;5.378;2023-10-13T11:54:20;24.20;99.90
44229;DHT22;29904;51.058;5.378;2023-10-13T11:56:50;24.10;99.90
44229;DHT22;29904;51.058;5.378;2023-10-13T11:59:18;24.00;99.90
44229;DHT22;29904;51.058;5.378;2023-10-13T12:01:45;24.00;99.90
44229;DHT22;29904;51.058;5.378;2023-10-13T12:04:29;23.90;99.90
44229;DHT22;29904;51.058;5.378;2023-10-13T12:07:06;23.80;99.90
44229;DHT22;29904;51.058;5.378;2023-10-13T12:10:06;23.80;99.90
44229;DHT22;29904;51.058;5.378;2023-10-13T12:12:40;23.80;99.90
44229;DHT22;29904;51.058;5.378;2023-10-13T12:15:10;23.90;99.90
44229;DHT22;29904;51.058;5.378;2023-10-13T12:17:50;23.80;99.90
44229;DHT22;29904;51.058;5.378;2023-10-13T12:20:18;23.90;99.90
44229;DHT22;29904;51.058;5.378;2023-10-13T12:22:58;23.90;99.90
44229;DHT22;29904;51.058;5.378;2023-10-13T12:25:37;24.00;99.90
44229;DHT22;29904;51.058;5.378;2023-10-13T12:28:24;24.00;99.90
44229;DHT22;29904;51.058;5.378;2023-10-13T12:30:54;24.10;99.90
44229;DHT22;29904;51.058;5.378;2023-10-13T12:33:23;24.20;99.90
44229;DHT22;29904;51.058;5.378;2023-10-13T12:36:00;24.20;99.90
44229;DHT22;29904;51.058;5.378;2023-10-13T12:38:38;24.30;99.90
44229;DHT22;29904;51.058;5.378;2023-10-13T12:41:13;24.30;99.90
44229;DHT22;29904;51.058;5.378;2023-10-13T12:43:58;24.20;99.90
44229;DHT22;29904;51.058;5.378;2023-10-13T12:46:42;24.20;99.90
44229;DHT22;29904;51.058;5.378;2023-10-13T12:49:26;24.20;99.90
44229;DHT22;29904;51.058;5.378;2023-10-13T12:52:09;24.10;99.90
44229;DHT22;29904;51.058;5.378;2023-10-13T12:54:53;24.00;99.90
44229;DHT22;29904;51.058;5.378;2023-10-13T12:57:25;24.00;99.90
44229;DHT22;29904;51.058;5.378;2023-10-13T12:59:51;24.00;99.90
44229;DHT22;29904;51.058;5.378;2023-10-13T13:02:20;23.90;99.90
44229;DHT22;29904;51.058;5.378;2023-10-13T13:04:46;23.80;99.90
44229;DHT22;29904;51.058;5.378;2023-10-13T13:07:16;23.70;99.90
44229;DHT22;29904;51.058;5.378;2023-10-13T13:09:43;23.60;99.90
44229;DHT22;29904;51.058;5.378;2023-10-13T13:12:09;23.50;99.90
44229;DHT22;29904;51.058;5.378;2023-10-13T13:14:38;23.50;99.90
44229;DHT22;29904;51.058;5.378;2023-10-13T13:17:07;23.50;99.90
44229;DHT22;29904;51.058;5.378;2023-10-13T13:19:37;23.50;99.90
44229;DHT22;29904;51.058;5.378;2023-10-13T13:22:07;23.50;99.90
44229;DHT22;29904;51.058;5.378;2023-10-13T13:24:45;23.50;99.90
44229;DHT22;29904;51.058;5.378;2023-10-13T13:27:14;23.60;99.90
44229;DHT22;29904;51.058;5.378;2023-10-13T13:29:46;23.60;99.90
44229;DHT22;29904;51.058;5.378;2023-10-13T13:32:14;23.60;99.90
44229;DHT22;29904;51.058;5.378;2023-10-13T13:34:47;23.50;99.90
44229;DHT22;29904;51.058;5.378;2023-10-13T13:37:21;23.50;99.90
44229;DHT22;29904;51.058;5.378;2023-10-13T13:39:46;23.40;99.90
44229;DHT22;29904;51.058;5.378;2023-10-13T13:42:12;23.30;99.90
44229;DHT22;29904;51.058;5.378;2023-10-13T13:44:44;23.20;99.90
44229;DHT22;29904;51.058;5.378;2023-10-13T13:47:12;23.10;99.90
44229;DHT22;29904;51.058;5.378;2023-10-13T13:49:39;23.10;99.90
44229;DHT22;29904;51.058;5.378;2023-10-13T13:52:08;23.10;99.90
44229;DHT22;29904;51.058;5.378;2023-10-13T13:54:35;23.10;99.90
44229;DHT22;29904;51.058;5.378;2023-10-13T13:57:00;23.10;99.90
44229;DHT22;29904;51.058;5.378;2023-10-13T13:59:26;23.10;99.90
44229;DHT22;29904;51.058;5.378;2023-10-13T14:02:01;23.10;99.90
44229;DHT22;29904;51.058;5.378;2023-10-13T14:04:31;23.10;99.90
44229;DHT22;29904;51.058;5.378;2023-10-13T14:06:57;23.10;99.90
44229;DHT22;29904;51.058;5.378;2023-10-13T14:09:25;23.10;99.90
44229;DHT22;29904;51.058;5.378;2023-10-13T14:12:06;23.20;99.90
44229;DHT22;29904;51.058;5.378;2023-10-13T14:15:01;23.10;99.90
44229;DHT22;29904;51.058;5.378;2023-10-13T14:17:26;23.10;99.90
44229;DHT22;29904;51.058;5.378;2023-10-13T14:19:56;23.10;99.90
44229;DHT22;29904;51.058;5.378;2023-10-13T14:22:24;23.00;99.90
44229;DHT22;29904;51.058;5.378;2023-10-13T14:24:51;23.00;99.90
44229;DHT22;29904;51.058;5.378;2023-10-13T14:27:23;22.90;99.90
44229;DHT22;29904;51.058;5.378;2023-10-13T14:29:51;22.90;99.90
44229;DHT22;29904;51.058;5.378;2023-10-13T14:32:20;22.90;99.90
44229;DHT22;29904;51.058;5.378;2023-10-13T14:34:50;22.90;99.90
44229;DHT22;29904;51.058;5.378;2023-10-13T14:37:22;22.90;99.90
44229;DHT22;29904;51.058;5.378;2023-10-13T14:39:58;22.90;99.90
44229;DHT22;29904;51.058;5.378;2023-10-13T14:42:27;22.90;99.90
44229;DHT22;29904;51.058;5.378;2023-10-13T14:44:54;22.90;99.90
44229;DHT22;29904;51.058;5.378;2023-10-13T14:47:23;23.00;99.90
44229;DHT22;29904;51.058;5.378;2023-10-13T14:49:57;22.90;99.90
44229;DHT22;29904;51.058;5.378;2023-10-13T14:52:25;22.90;99.90
44229;DHT22;29904;51.058;5.378;2023-10-13T14:54:51;22.80;99.90
44229;DHT22;29904;51.058;5.378;2023-10-13T14:57:23;22.70;99.90
44229;DHT22;29904;51.058;5.378;2023-10-13T14:59:53;22.70;99.90
44229;DHT22;29904;51.058;5.378;2023-10-13T15:02:20;22.70;99.90
44229;DHT22;29904;51.058;5.378;2023-10-13T15:04:49;22.60;99.90
44229;DHT22;29904;51.058;5.378;2023-10-13T15:07:15;22.50;99.90
44229;DHT22;29904;51.058;5.378;2023-10-13T15:09:43;22.50;99.90
44229;DHT22;29904;51.058;5.378;2023-10-13T15:12:12;22.50;99.90
44229;DHT22;29904;51.058;5.378;2023-10-13T15:14:40;22.40;99.90
44229;DHT22;29904;51.058;5.378;2023-10-13T15:17:09;22.30;99.90
44229;DHT22;29904;51.058;5.378;2023-10-13T15:19:38;22.30;99.90
44229;DHT22;29904;51.058;5.378;2023-10-13T15:22:05;22.30;99.90
44229;DHT22;29904;51.058;5.378;2023-10-13T15:24:38;22.20;99.90
44229;DHT22;29904;51.058;5.378;2023-10-13T15:27:27;22.20;99.90
44229;DHT22;29904;51.058;5.378;2023-10-13T15:29:54;22.20;99.90
44229;DHT22;29904;51.058;5.378;2023-10-13T15:32:20;22.10;99.90
44229;DHT22;29904;51.058;5.378;2023-10-13T15:35:05;22.10;99.90
44229;DHT22;29904;51.058;5.378;2023-10-13T15:37:38;22.10;99.90
44229;DHT22;29904;51.058;5.378;2023-10-13T15:40:04;22.00;99.90
44229;DHT22;29904;51.058;5.378;2023-10-13T15:42:30;22.10;99.90
44229;DHT22;29904;51.058;5.378;2023-10-13T15:44:55;22.00;99.90
44229;DHT22;29904;51.058;5.378;2023-10-13T15:47:21;21.90;99.90
44229;DHT22;29904;51.058;5.378;2023-10-13T15:49:47;21.70;99.90
44229;DHT22;29904;51.058;5.378;2023-10-13T15:52:13;21.60;99.90
44229;DHT22;29904;51.058;5.378;2023-10-13T15:54:41;21.40;99.90
44229;DHT22;29904;51.058;5.378;2023-10-13T15:57:09;21.30;99.90
44229;DHT22;29904;51.058;5.378;2023-10-13T15:59:41;21.10;99.90
44229;DHT22;29904;51.058;5.378;2023-10-13T16:02:11;21.00;99.90
44229;DHT22;29904;51.058;5.378;2023-10-13T16:04:37;20.90;99.90
44229;DHT22;29904;51.058;5.378;2023-10-13T16:07:03;20.80;99.90
44229;DHT22;29904;51.058;5.378;2023-10-13T16:09:30;20.70;99.90
44229;DHT22;29904;51.058;5.378;2023-10-13T16:11:59;20.60;99.90
44229;DHT22;29904;51.058;5.378;2023-10-13T16:14:25;20.60;99.90
44229;DHT22;29904;51.058;5.378;2023-10-13T16:16:51;20.60;99.90
44229;DHT22;29904;51.058;5.378;2023-10-13T16:19:21;20.50;99.90
44229;DHT22;29904;51.058;5.378;2023-10-13T16:21:48;20.50;99.90
44229;DHT22;29904;51.058;5.378;2023-10-13T16:24:14;20.40;99.90